sensor_id;sensor_type;location;lat;lon;timestamp;temperature;humidity
29577;DHT22;16509;53.862;10.672;2023-07-31T00:01:39;14.00;99.90
29577;DHT22;16509;53.862;10.672;2023-07-31T00:04:05;14.00;99.90
29577;DHT22;16509;53.862;10.672;2023-07-31T00:06:30;14.00;99.90
29577;DHT22;16509;53.862;10.672;2023-07-31T00:08:56;14.00;99.90
29577;DHT22;16509;53.862;10.672;2023-07-31T00:11:22;14.30;99.90
29577;DHT22;16509;53.862;10.672;2023-07-31T00:13:47;14.00;99.90
29577;DHT22;16509;53.862;10.672;2023-07-31T00:16:13;15.60;99.90
29577;DHT22;16509;53.862;10.672;2023-07-31T00:18:38;14.00;99.90
29577;DHT22;16509;53.862;10.672;2023-07-31T00:21:04;14.00;99.90
29577;DHT22;16509;53.862;10.672;2023-07-31T00:23:29;14.00;99.90
29577;DHT22;16509;53.862;10.672;2023-07-31T00:25:55;14.00;99.90
29577;DHT22;16509;53.862;10.672;2023-07-31T00:28:20;14.00;99.90
29577;DHT22;16509;53.862;10.672;2023-07-31T00:30:46;14.00;99.90
29577;DHT22;16509;53.862;10.672;2023-07-31T00:33:11;14.10;99.90
29577;DHT22;16509;53.862;10.672;2023-07-31T00:35:37;14.00;99.90
29577;DHT22;16509;53.862;10.672;2023-07-31T00:38:02;14.00;99.90
29577;DHT22;16509;53.862;10.672;2023-07-31T00:40:28;14.00;99.90
29577;DHT22;16509;53.862;10.672;2023-07-31T00:42:54;14.10;99.90
29577;DHT22;16509;53.862;10.672;2023-07-31T00:45:19;15.50;99.90
29577;DHT22;16509;53.862;10.672;2023-07-31T00:47:46;14.00;99.90
29577;DHT22;16509;53.862;10.672;2023-07-31T00:50:11;14.00;99.90
29577;DHT22;16509;53.862;10.672;2023-07-31T00:52:37;14.10;99.90
29577;DHT22;16509;53.862;10.672;2023-07-31T00:55:03;14.10;99.90
29577;DHT22;16509;53.862;10.672;2023-07-31T00:57:30;14.10;99.90
29577;DHT22;16509;53.862;10.672;2023-07-31T00:59:57;14.00;99.90
29577;DHT22;16509;53.862;10.672;2023-07-31T01:02:22;14.10;99.90
29577;DHT22;16509;53.862;10.672;2023-07-31T01:04:48;14.10;99.90
29577;DHT22;16509;53.862;10.672;2023-07-31T01:07:27;14.10;99.90
29577;DHT22;16509;53.862;10.672;2023-07-31T01:12:39;14.10;99.90
29577;DHT22;16509;53.862;10.672;2023-07-31T01:15:07;14.10;99.90
29577;DHT22;16509;53.862;10.672;2023-07-31T01:17:36;14.10;99.90
29577;DHT22;16509;53.862;10.672;2023-07-31T01:20:05;14.10;99.90
29577;DHT22;16509;53.862;10.672;2023-07-31T01:28:40;14.20;99.90
29577;DHT22;16509;53.862;10.672;2023-07-31T01:31:10;14.10;99.90
29577;DHT22;16509;53.862;10.672;2023-07-31T01:33:38;14.10;99.90
29577;DHT22;16509;53.862;10.672;2023-07-31T01:36:04;14.10;99.90
29577;DHT22;16509;53.862;10.672;2023-07-31T01:38:29;14.10;99.90
29577;DHT22;16509;53.862;10.672;2023-07-31T01:40:55;14.10;99.90
29577;DHT22;16509;53.862;10.672;2023-07-31T01:43:20;14.20;99.90
29577;DHT22;16509;53.862;10.672;2023-07-31T01:45:46;14.20;99.90
29577;DHT22;16509;53.862;10.672;2023-07-31T01:48:12;14.20;99.90
29577;DHT22;16509;53.862;10.672;2023-07-31T01:50:37;14.20;99.90
29577;DHT22;16509;53.862;10.672;2023-07-31T01:53:03;14.10;99.90
29577;DHT22;16509;53.862;10.672;2023-07-31T01:55:28;14.80;99.90
29577;DHT22;16509;53.862;10.672;2023-07-31T01:57:54;14.10;99.90
29577;DHT22;16509;53.862;10.672;2023-07-31T02:00:19;14.10;99.90
29577;DHT22;16509;53.862;10.672;2023-07-31T02:02:45;14.10;99.90
29577;DHT22;16509;53.862;10.672;2023-07-31T02:05:10;14.10;99.90
29577;DHT22;16509;53.862;10.672;2023-07-31T02:07:36;14.10;99.90
29577;DHT22;16509;53.862;10.672;2023-07-31T02:10:02;14.10;99.90
29577;DHT22;16509;53.862;10.672;2023-07-31T02:12:27;14.10;99.90
29577;DHT22;16509;53.862;10.672;2023-07-31T02:14:55;14.10;99.90
29577;DHT22;16509;53.862;10.672;2023-07-31T02:17:21;14.10;99.90
29577;DHT22;16509;53.862;10.672;2023-07-31T02:19:46;14.10;99.90
29577;DHT22;16509;53.862;10.672;2023-07-31T02:22:12;14.00;99.90
29577;DHT22;16509;53.862;10.672;2023-07-31T02:24:37;14.00;99.90
29577;DHT22;16509;53.862;10.672;2023-07-31T02:27:03;14.10;99.90
29577;DHT22;16509;53.862;10.672;2023-07-31T02:29:29;14.00;99.90
29577;DHT22;16509;53.862;10.672;2023-07-31T02:31:54;14.10;99.90
29577;DHT22;16509;53.862;10.672;2023-07-31T02:34:20;14.10;99.90
29577;DHT22;16509;53.862;10.672;2023-07-31T02:36:45;14.10;99.90
29577;DHT22;16509;53.862;10.672;2023-07-31T02:39:11;14.10;99.90
29577;DHT22;16509;53.862;10.672;2023-07-31T02:41:36;14.10;99.90
29577;DHT22;16509;53.862;10.672;2023-07-31T02:44:02;14.50;99.90
29577;DHT22;16509;53.862;10.672;2023-07-31T02:46:28;14.20;99.90
29577;DHT22;16509;53.862;10.672;2023-07-31T02:48:53;14.10;99.90
29577;DHT22;16509;53.862;10.672;2023-07-31T02:51:19;14.20;99.90
29577;DHT22;16509;53.862;10.672;2023-07-31T02:53:47;14.10;99.90
29577;DHT22;16509;53.862;10.672;2023-07-31T02:56:13;15.40;99.90
29577;DHT22;16509;53.862;10.672;2023-07-31T02:58:38;14.20;99.90
29577;DHT22;16509;53.862;10.672;2023-07-31T03:01:04;14.20;99.90
29577;DHT22;16509;53.862;10.672;2023-07-31T03:03:29;14.20;99.90
29577;DHT22;16509;53.862;10.672;2023-07-31T03:05:55;16.30;99.90
29577;DHT22;16509;53.862;10.672;2023-07-31T03:08:21;14.20;99.90
29577;DHT22;16509;53.862;10.672;2023-07-31T03:10:46;14.20;99.90
29577;DHT22;16509;53.862;10.672;2023-07-31T03:13:12;14.20;99.90
29577;DHT22;16509;53.862;10.672;2023-07-31T03:15:41;14.20;99.90
29577;DHT22;16509;53.862;10.672;2023-07-31T03:18:07;14.20;99.90
29577;DHT22;16509;53.862;10.672;2023-07-31T03:20:32;14.20;99.90
29577;DHT22;16509;53.862;10.672;2023-07-31T03:22:58;14.80;99.90
29577;DHT22;16509;53.862;10.672;2023-07-31T03:25:23;14.20;99.90
29577;DHT22;16509;53.862;10.672;2023-07-31T03:27:49;14.30;99.90
29577;DHT22;16509;53.862;10.672;2023-07-31T03:30:14;14.20;99.90
29577;DHT22;16509;53.862;10.672;2023-07-31T03:32:40;14.70;99.90
29577;DHT22;16509;53.862;10.672;2023-07-31T03:35:05;14.20;99.90
29577;DHT22;16509;53.862;10.672;2023-07-31T03:37:31;14.30;99.90
29577;DHT22;16509;53.862;10.672;2023-07-31T03:39:56;14.30;99.90
29577;DHT22;16509;53.862;10.672;2023-07-31T03:42:22;14.30;99.90
29577;DHT22;16509;53.862;10.672;2023-07-31T03:44:48;16.50;99.90
29577;DHT22;16509;53.862;10.672;2023-07-31T03:47:13;14.30;99.90
29577;DHT22;16509;53.862;10.672;2023-07-31T03:49:39;14.40;99.90
29577;DHT22;16509;53.862;10.672;2023-07-31T03:52:05;14.30;99.90
29577;DHT22;16509;53.862;10.672;2023-07-31T03:54:30;14.30;99.90
29577;DHT22;16509;53.862;10.672;2023-07-31T03:56:56;14.30;99.90
29577;DHT22;16509;53.862;10.672;2023-07-31T03:59:21;15.60;99.90
29577;DHT22;16509;53.862;10.672;2023-07-31T04:01:47;14.30;99.90
29577;DHT22;16509;53.862;10.672;2023-07-31T04:04:12;14.40;99.90
29577;DHT22;16509;53.862;10.672;2023-07-31T04:06:38;17.90;99.90
29577;DHT22;16509;53.862;10.672;2023-07-31T04:09:03;14.40;99.90
29577;DHT22;16509;53.862;10.672;2023-07-31T04:11:29;14.40;99.90
29577;DHT22;16509;53.862;10.672;2023-07-31T04:13:54;14.40;99.90
29577;DHT22;16509;53.862;10.672;2023-07-31T04:16:20;14.40;99.90
29577;DHT22;16509;53.862;10.672;2023-07-31T04:18:45;16.20;99.90
29577;DHT22;16509;53.862;10.672;2023-07-31T04:21:11;14.40;99.90
29577;DHT22;16509;53.862;10.672;2023-07-31T04:23:37;14.40;99.90
29577;DHT22;16509;53.862;10.672;2023-07-31T04:26:02;14.40;99.90
29577;DHT22;16509;53.862;10.672;2023-07-31T04:28:28;15.20;99.90
29577;DHT22;16509;53.862;10.672;2023-07-31T04:30:53;14.40;99.90
29577;DHT22;16509;53.862;10.672;2023-07-31T04:33:19;14.50;99.90
29577;DHT22;16509;53.862;10.672;2023-07-31T04:35:50;14.50;99.90
29577;DHT22;16509;53.862;10.672;2023-07-31T04:38:18;14.50;99.90
29577;DHT22;16509;53.862;10.672;2023-07-31T04:40:44;14.50;99.90
29577;DHT22;16509;53.862;10.672;2023-07-31T04:43:09;14.60;99.90
29577;DHT22;16509;53.862;10.672;2023-07-31T04:45:35;14.60;99.90
29577;DHT22;16509;53.862;10.672;2023-07-31T04:48:00;14.60;99.90
29577;DHT22;16509;53.862;10.672;2023-07-31T04:50:26;14.60;99.90
29577;DHT22;16509;53.862;10.672;2023-07-31T04:52:52;14.60;99.90
29577;DHT22;16509;53.862;10.672;2023-07-31T04:55:17;14.70;99.90
29577;DHT22;16509;53.862;10.672;2023-07-31T04:57:43;14.70;99.90
29577;DHT22;16509;53.862;10.672;2023-07-31T05:00:08;14.80;99.90
29577;DHT22;16509;53.862;10.672;2023-07-31T05:02:34;14.70;99.90
29577;DHT22;16509;53.862;10.672;2023-07-31T05:05:00;14.80;99.90
29577;DHT22;16509;53.862;10.672;2023-07-31T05:07:25;14.90;99.90
29577;DHT22;16509;53.862;10.672;2023-07-31T05:09:51;14.90;99.90
29577;DHT22;16509;53.862;10.672;2023-07-31T05:12:16;15.00;99.90
29577;DHT22;16509;53.862;10.672;2023-07-31T05:14:42;15.00;99.90
29577;DHT22;16509;53.862;10.672;2023-07-31T05:17:07;15.00;99.90
29577;DHT22;16509;53.862;10.672;2023-07-31T05:19:33;15.00;99.90
29577;DHT22;16509;53.862;10.672;2023-07-31T05:21:58;15.10;99.90
29577;DHT22;16509;53.862;10.672;2023-07-31T05:24:24;15.10;99.90
29577;DHT22;16509;53.862;10.672;2023-07-31T05:26:49;15.30;99.90
29577;DHT22;16509;53.862;10.672;2023-07-31T05:29:15;15.20;99.90
29577;DHT22;16509;53.862;10.672;2023-07-31T05:31:41;15.20;99.90
29577;DHT22;16509;53.862;10.672;2023-07-31T05:34:07;15.30;99.90
29577;DHT22;16509;53.862;10.672;2023-07-31T05:36:33;15.20;99.90
29577;DHT22;16509;53.862;10.672;2023-07-31T05:38:58;15.20;99.90
29577;DHT22;16509;53.862;10.672;2023-07-31T05:41:24;15.30;99.90
29577;DHT22;16509;53.862;10.672;2023-07-31T05:43:49;15.10;99.90
29577;DHT22;16509;53.862;10.672;2023-07-31T05:46:15;15.30;99.90
29577;DHT22;16509;53.862;10.672;2023-07-31T05:48:40;15.30;99.90
29577;DHT22;16509;53.862;10.672;2023-07-31T05:51:06;15.30;99.90
29577;DHT22;16509;53.862;10.672;2023-07-31T05:53:32;15.30;99.90
29577;DHT22;16509;53.862;10.672;2023-07-31T05:55:58;15.30;99.90
29577;DHT22;16509;53.862;10.672;2023-07-31T05:58:23;15.30;99.90
29577;DHT22;16509;53.862;10.672;2023-07-31T06:00:49;15.30;99.90
29577;DHT22;16509;53.862;10.672;2023-07-31T06:03:14;16.20;99.90
29577;DHT22;16509;53.862;10.672;2023-07-31T06:05:40;15.40;99.90
29577;DHT22;16509;53.862;10.672;2023-07-31T06:08:05;15.40;99.90
29577;DHT22;16509;53.862;10.672;2023-07-31T06:10:31;15.50;99.90
29577;DHT22;16509;53.862;10.672;2023-07-31T06:12:56;15.50;99.90
29577;DHT22;16509;53.862;10.672;2023-07-31T06:15:22;15.60;99.90
29577;DHT22;16509;53.862;10.672;2023-07-31T06:17:48;15.50;99.90
29577;DHT22;16509;53.862;10.672;2023-07-31T06:20:13;15.50;99.90
29577;DHT22;16509;53.862;10.672;2023-07-31T06:22:39;15.60;99.90
29577;DHT22;16509;53.862;10.672;2023-07-31T06:25:05;15.60;99.90
29577;DHT22;16509;53.862;10.672;2023-07-31T06:27:30;15.60;99.90
29577;DHT22;16509;53.862;10.672;2023-07-31T06:29:56;15.70;99.90
29577;DHT22;16509;53.862;10.672;2023-07-31T06:32:22;15.70;99.90
29577;DHT22;16509;53.862;10.672;2023-07-31T06:34:47;15.70;99.90
29577;DHT22;16509;53.862;10.672;2023-07-31T06:37:13;15.80;99.90
29577;DHT22;16509;53.862;10.672;2023-07-31T06:39:38;15.80;99.90
29577;DHT22;16509;53.862;10.672;2023-07-31T06:42:04;15.80;99.90
29577;DHT22;16509;53.862;10.672;2023-07-31T06:44:30;15.90;99.90
29577;DHT22;16509;53.862;10.672;2023-07-31T06:46:55;15.90;99.90
29577;DHT22;16509;53.862;10.672;2023-07-31T06:49:21;15.90;99.90
29577;DHT22;16509;53.862;10.672;2023-07-31T06:51:46;18.90;99.90
29577;DHT22;16509;53.862;10.672;2023-07-31T06:54:12;15.90;99.90
29577;DHT22;16509;53.862;10.672;2023-07-31T06:56:37;16.90;99.90
29577;DHT22;16509;53.862;10.672;2023-07-31T06:59:03;16.00;99.90
29577;DHT22;16509;53.862;10.672;2023-07-31T07:01:29;16.00;99.90
29577;DHT22;16509;53.862;10.672;2023-07-31T07:03:54;17.70;99.90
29577;DHT22;16509;53.862;10.672;2023-07-31T07:06:21;16.00;99.90
29577;DHT22;16509;53.862;10.672;2023-07-31T07:08:48;16.10;99.90
29577;DHT22;16509;53.862;10.672;2023-07-31T07:11:13;17.90;99.90
29577;DHT22;16509;53.862;10.672;2023-07-31T07:13:39;16.10;99.90
29577;DHT22;16509;53.862;10.672;2023-07-31T07:16:04;19.60;99.90
29577;DHT22;16509;53.862;10.672;2023-07-31T07:18:30;16.10;99.90
29577;DHT22;16509;53.862;10.672;2023-07-31T07:20:56;19.30;99.90
29577;DHT22;16509;53.862;10.672;2023-07-31T07:23:23;16.10;99.90
29577;DHT22;16509;53.862;10.672;2023-07-31T07:28:15;16.10;99.90
29577;DHT22;16509;53.862;10.672;2023-07-31T07:30:40;17.00;99.90
29577;DHT22;16509;53.862;10.672;2023-07-31T07:33:06;16.10;99.90
29577;DHT22;16509;53.862;10.672;2023-07-31T07:35:35;16.10;99.90
29577;DHT22;16509;53.862;10.672;2023-07-31T07:38:04;16.30;99.90
29577;DHT22;16509;53.862;10.672;2023-07-31T07:40:30;16.00;99.90
29577;DHT22;16509;53.862;10.672;2023-07-31T07:42:55;16.10;99.90
29577;DHT22;16509;53.862;10.672;2023-07-31T07:45:21;16.00;99.90
29577;DHT22;16509;53.862;10.672;2023-07-31T07:47:46;16.00;99.90
29577;DHT22;16509;53.862;10.672;2023-07-31T07:50:12;15.90;99.90
29577;DHT22;16509;53.862;10.672;2023-07-31T07:52:37;17.70;99.90
29577;DHT22;16509;53.862;10.672;2023-07-31T07:55:03;15.80;99.90
29577;DHT22;16509;53.862;10.672;2023-07-31T07:57:29;15.80;99.90
29577;DHT22;16509;53.862;10.672;2023-07-31T07:59:54;17.40;99.90
29577;DHT22;16509;53.862;10.672;2023-07-31T08:02:21;15.70;99.90
29577;DHT22;16509;53.862;10.672;2023-07-31T08:04:47;15.80;99.90
29577;DHT22;16509;53.862;10.672;2023-07-31T08:07:12;15.70;99.90
29577;DHT22;16509;53.862;10.672;2023-07-31T08:09:38;15.70;99.90
29577;DHT22;16509;53.862;10.672;2023-07-31T08:12:04;15.70;99.90
29577;DHT22;16509;53.862;10.672;2023-07-31T08:14:30;15.70;99.90
29577;DHT22;16509;53.862;10.672;2023-07-31T08:16:56;15.70;99.90
29577;DHT22;16509;53.862;10.672;2023-07-31T08:19:21;15.70;99.90
29577;DHT22;16509;53.862;10.672;2023-07-31T08:21:47;17.50;99.90
29577;DHT22;16509;53.862;10.672;2023-07-31T08:24:12;15.70;99.90
29577;DHT22;16509;53.862;10.672;2023-07-31T08:26:38;17.90;99.90
29577;DHT22;16509;53.862;10.672;2023-07-31T08:29:03;15.70;99.90
29577;DHT22;16509;53.862;10.672;2023-07-31T08:31:29;15.70;99.90
29577;DHT22;16509;53.862;10.672;2023-07-31T08:33:55;16.90;99.90
29577;DHT22;16509;53.862;10.672;2023-07-31T08:36:21;16.60;99.90
29577;DHT22;16509;53.862;10.672;2023-07-31T08:38:46;15.80;99.90
29577;DHT22;16509;53.862;10.672;2023-07-31T08:41:12;16.80;99.90
29577;DHT22;16509;53.862;10.672;2023-07-31T08:43:39;16.00;99.90
29577;DHT22;16509;53.862;10.672;2023-07-31T08:46:05;16.20;99.90
29577;DHT22;16509;53.862;10.672;2023-07-31T08:48:31;18.50;99.90
29577;DHT22;16509;53.862;10.672;2023-07-31T08:50:58;15.80;99.90
29577;DHT22;16509;53.862;10.672;2023-07-31T08:53:23;15.80;99.90
29577;DHT22;16509;53.862;10.672;2023-07-31T08:55:49;15.80;99.90
29577;DHT22;16509;53.862;10.672;2023-07-31T08:58:17;16.00;99.90
29577;DHT22;16509;53.862;10.672;2023-07-31T09:00:43;15.80;99.90
29577;DHT22;16509;53.862;10.672;2023-07-31T09:03:33;17.30;99.90
29577;DHT22;16509;53.862;10.672;2023-07-31T09:05:59;15.80;99.90
29577;DHT22;16509;53.862;10.672;2023-07-31T09:08:26;15.90;99.90
29577;DHT22;16509;53.862;10.672;2023-07-31T09:11:02;15.90;99.90
29577;DHT22;16509;53.862;10.672;2023-07-31T09:13:31;16.00;99.90
29577;DHT22;16509;53.862;10.672;2023-07-31T09:15:57;15.70;99.90
29577;DHT22;16509;53.862;10.672;2023-07-31T09:18:23;15.80;99.90
29577;DHT22;16509;53.862;10.672;2023-07-31T09:21:04;15.70;99.90
29577;DHT22;16509;53.862;10.672;2023-07-31T09:23:44;15.70;99.90
29577;DHT22;16509;53.862;10.672;2023-07-31T09:26:10;15.70;99.90
29577;DHT22;16509;53.862;10.672;2023-07-31T09:28:36;17.10;99.90
29577;DHT22;16509;53.862;10.672;2023-07-31T09:31:02;16.00;99.90
29577;DHT22;16509;53.862;10.672;2023-07-31T09:33:27;15.80;99.90
29577;DHT22;16509;53.862;10.672;2023-07-31T09:35:53;17.30;99.90
29577;DHT22;16509;53.862;10.672;2023-07-31T09:38:18;16.00;99.90
29577;DHT22;16509;53.862;10.672;2023-07-31T09:40:46;16.10;99.90
29577;DHT22;16509;53.862;10.672;2023-07-31T09:43:13;16.20;99.90
29577;DHT22;16509;53.862;10.672;2023-07-31T09:45:43;16.80;99.90
29577;DHT22;16509;53.862;10.672;2023-07-31T09:48:10;16.40;99.90
29577;DHT22;16509;53.862;10.672;2023-07-31T09:50:38;16.40;99.90
29577;DHT22;16509;53.862;10.672;2023-07-31T09:53:05;18.00;99.90
29577;DHT22;16509;53.862;10.672;2023-07-31T09:55:30;17.10;99.90
29577;DHT22;16509;53.862;10.672;2023-07-31T09:57:57;16.60;99.90
29577;DHT22;16509;53.862;10.672;2023-07-31T10:00:23;16.70;99.90
29577;DHT22;16509;53.862;10.672;2023-07-31T10:02:51;16.70;99.90
29577;DHT22;16509;53.862;10.672;2023-07-31T10:05:16;16.70;99.90
29577;DHT22;16509;53.862;10.672;2023-07-31T10:07:46;16.70;99.90
29577;DHT22;16509;53.862;10.672;2023-07-31T10:10:16;18.40;99.90
29577;DHT22;16509;53.862;10.672;2023-07-31T10:12:42;16.90;99.90
29577;DHT22;16509;53.862;10.672;2023-07-31T10:15:09;17.00;99.90
29577;DHT22;16509;53.862;10.672;2023-07-31T10:17:36;17.00;99.90
29577;DHT22;16509;53.862;10.672;2023-07-31T10:20:02;17.00;99.90
29577;DHT22;16509;53.862;10.672;2023-07-31T10:22:31;16.90;99.90
29577;DHT22;16509;53.862;10.672;2023-07-31T10:24:58;16.90;99.90
29577;DHT22;16509;53.862;10.672;2023-07-31T10:27:25;17.10;99.90
29577;DHT22;16509;53.862;10.672;2023-07-31T10:29:52;17.10;99.90
29577;DHT22;16509;53.862;10.672;2023-07-31T10:32:18;18.60;99.90
29577;DHT22;16509;53.862;10.672;2023-07-31T10:34:45;17.00;99.90
29577;DHT22;16509;53.862;10.672;2023-07-31T10:37:41;17.00;99.90
29577;DHT22;16509;53.862;10.672;2023-07-31T10:40:16;17.00;99.90
29577;DHT22;16509;53.862;10.672;2023-07-31T10:42:46;17.00;99.90
29577;DHT22;16509;53.862;10.672;2023-07-31T10:45:13;16.90;99.90
29577;DHT22;16509;53.862;10.672;2023-07-31T10:47:46;16.90;99.90
29577;DHT22;16509;53.862;10.672;2023-07-31T10:52:37;16.70;99.90
29577;DHT22;16509;53.862;10.672;2023-07-31T10:55:16;17.60;99.90
29577;DHT22;16509;53.862;10.672;2023-07-31T10:57:47;16.90;99.90
29577;DHT22;16509;53.862;10.672;2023-07-31T11:00:26;16.90;99.90
29577;DHT22;16509;53.862;10.672;2023-07-31T11:02:59;16.80;99.90
29577;DHT22;16509;53.862;10.672;2023-07-31T11:08:12;16.90;99.90
29577;DHT22;16509;53.862;10.672;2023-07-31T11:10:38;16.80;99.90
29577;DHT22;16509;53.862;10.672;2023-07-31T11:13:04;16.80;99.90
29577;DHT22;16509;53.862;10.672;2023-07-31T11:15:30;16.80;99.90
29577;DHT22;16509;53.862;10.672;2023-07-31T11:17:56;17.10;99.90
29577;DHT22;16509;53.862;10.672;2023-07-31T11:20:24;17.10;99.90
29577;DHT22;16509;53.862;10.672;2023-07-31T11:22:49;18.30;99.90
29577;DHT22;16509;53.862;10.672;2023-07-31T11:25:16;16.60;99.90
29577;DHT22;16509;53.862;10.672;2023-07-31T11:27:41;16.50;99.90
29577;DHT22;16509;53.862;10.672;2023-07-31T11:30:09;17.10;99.90
29577;DHT22;16509;53.862;10.672;2023-07-31T11:32:38;16.40;99.90
29577;DHT22;16509;53.862;10.672;2023-07-31T11:35:04;17.80;99.90
29577;DHT22;16509;53.862;10.672;2023-07-31T11:37:41;16.50;99.90
29577;DHT22;16509;53.862;10.672;2023-07-31T11:40:07;16.50;99.90
29577;DHT22;16509;53.862;10.672;2023-07-31T11:42:34;16.40;99.90
29577;DHT22;16509;53.862;10.672;2023-07-31T11:45:03;16.50;99.90
29577;DHT22;16509;53.862;10.672;2023-07-31T11:47:30;17.90;99.90
29577;DHT22;16509;53.862;10.672;2023-07-31T11:49:57;17.00;99.90
29577;DHT22;16509;53.862;10.672;2023-07-31T11:52:23;17.30;99.90
29577;DHT22;16509;53.862;10.672;2023-07-31T11:54:50;16.30;99.90
29577;DHT22;16509;53.862;10.672;2023-07-31T11:57:16;16.30;99.90
29577;DHT22;16509;53.862;10.672;2023-07-31T11:59:42;16.30;99.90
29577;DHT22;16509;53.862;10.672;2023-07-31T12:02:08;16.30;99.90
29577;DHT22;16509;53.862;10.672;2023-07-31T12:04:35;16.30;99.90
29577;DHT22;16509;53.862;10.672;2023-07-31T12:07:01;16.20;99.90
29577;DHT22;16509;53.862;10.672;2023-07-31T12:09:26;16.30;99.90
29577;DHT22;16509;53.862;10.672;2023-07-31T12:11:52;16.70;99.90
29577;DHT22;16509;53.862;10.672;2023-07-31T12:14:25;16.90;99.90
29577;DHT22;16509;53.862;10.672;2023-07-31T12:16:55;16.30;99.90
29577;DHT22;16509;53.862;10.672;2023-07-31T12:19:22;16.20;99.90
29577;DHT22;16509;53.862;10.672;2023-07-31T12:21:47;16.10;99.90
29577;DHT22;16509;53.862;10.672;2023-07-31T12:24:13;16.10;99.90
29577;DHT22;16509;53.862;10.672;2023-07-31T12:26:38;16.10;99.90
29577;DHT22;16509;53.862;10.672;2023-07-31T12:29:07;16.20;99.90
29577;DHT22;16509;53.862;10.672;2023-07-31T12:31:34;16.00;99.90
29577;DHT22;16509;53.862;10.672;2023-07-31T12:33:59;18.20;99.90
29577;DHT22;16509;53.862;10.672;2023-07-31T12:36:26;16.00;99.90
29577;DHT22;16509;53.862;10.672;2023-07-31T12:38:53;15.90;99.90
29577;DHT22;16509;53.862;10.672;2023-07-31T12:41:21;16.00;99.90
29577;DHT22;16509;53.862;10.672;2023-07-31T12:43:46;16.00;99.90
29577;DHT22;16509;53.862;10.672;2023-07-31T12:46:12;16.60;99.90
29577;DHT22;16509;53.862;10.672;2023-07-31T12:48:39;16.00;99.90
29577;DHT22;16509;53.862;10.672;2023-07-31T12:51:06;16.00;99.90
29577;DHT22;16509;53.862;10.672;2023-07-31T12:53:34;16.00;99.90
29577;DHT22;16509;53.862;10.672;2023-07-31T12:56:00;16.60;99.90
29577;DHT22;16509;53.862;10.672;2023-07-31T12:58:26;16.00;99.90
29577;DHT22;16509;53.862;10.672;2023-07-31T13:00:52;16.10;99.90
29577;DHT22;16509;53.862;10.672;2023-07-31T13:03:17;16.10;99.90
29577;DHT22;16509;53.862;10.672;2023-07-31T13:05:43;16.00;99.90
29577;DHT22;16509;53.862;10.672;2023-07-31T13:08:08;17.90;99.90
29577;DHT22;16509;53.862;10.672;2023-07-31T13:10:34;15.90;99.90
29577;DHT22;16509;53.862;10.672;2023-07-31T13:12:59;15.80;99.90
29577;DHT22;16509;53.862;10.672;2023-07-31T13:15:25;15.80;99.90
29577;DHT22;16509;53.862;10.672;2023-07-31T13:17:50;15.70;99.90
29577;DHT22;16509;53.862;10.672;2023-07-31T13:20:16;16.80;99.90
29577;DHT22;16509;53.862;10.672;2023-07-31T13:22:41;16.70;99.90
29577;DHT22;16509;53.862;10.672;2023-07-31T13:25:07;15.90;99.90
29577;DHT22;16509;53.862;10.672;2023-07-31T13:27:33;15.90;99.90
29577;DHT22;16509;53.862;10.672;2023-07-31T13:29:59;15.80;99.90
29577;DHT22;16509;53.862;10.672;2023-07-31T13:32:25;15.80;99.90
29577;DHT22;16509;53.862;10.672;2023-07-31T13:34:51;15.90;99.90
29577;DHT22;16509;53.862;10.672;2023-07-31T13:37:17;16.30;99.90
29577;DHT22;16509;53.862;10.672;2023-07-31T13:39:43;15.90;99.90
29577;DHT22;16509;53.862;10.672;2023-07-31T13:42:09;16.00;99.90
29577;DHT22;16509;53.862;10.672;2023-07-31T13:44:40;16.00;99.90
29577;DHT22;16509;53.862;10.672;2023-07-31T13:47:06;16.10;99.90
29577;DHT22;16509;53.862;10.672;2023-07-31T13:49:32;16.20;99.90
29577;DHT22;16509;53.862;10.672;2023-07-31T13:51:58;16.20;99.90
29577;DHT22;16509;53.862;10.672;2023-07-31T13:54:24;16.10;99.90
29577;DHT22;16509;53.862;10.672;2023-07-31T13:56:51;16.10;99.90
29577;DHT22;16509;53.862;10.672;2023-07-31T13:59:16;17.40;99.90
29577;DHT22;16509;53.862;10.672;2023-07-31T14:01:43;17.10;99.90
29577;DHT22;16509;53.862;10.672;2023-07-31T14:04:08;15.90;99.90
29577;DHT22;16509;53.862;10.672;2023-07-31T14:06:34;15.90;99.90
29577;DHT22;16509;53.862;10.672;2023-07-31T14:08:59;18.50;99.90
29577;DHT22;16509;53.862;10.672;2023-07-31T14:11:26;15.90;99.90
29577;DHT22;16509;53.862;10.672;2023-07-31T14:13:51;15.90;99.90
29577;DHT22;16509;53.862;10.672;2023-07-31T14:16:17;15.80;99.90
29577;DHT22;16509;53.862;10.672;2023-07-31T14:18:43;15.80;99.90
29577;DHT22;16509;53.862;10.672;2023-07-31T14:21:11;18.40;99.90
29577;DHT22;16509;53.862;10.672;2023-07-31T14:23:36;15.90;99.90
29577;DHT22;16509;53.862;10.672;2023-07-31T14:26:02;17.70;99.90
29577;DHT22;16509;53.862;10.672;2023-07-31T14:28:27;16.00;99.90
29577;DHT22;16509;53.862;10.672;2023-07-31T14:30:53;15.80;99.90
29577;DHT22;16509;53.862;10.672;2023-07-31T14:33:18;17.70;99.90
29577;DHT22;16509;53.862;10.672;2023-07-31T14:35:44;16.00;99.90
29577;DHT22;16509;53.862;10.672;2023-07-31T14:38:10;18.00;99.90
29577;DHT22;16509;53.862;10.672;2023-07-31T14:40:35;16.10;99.90
29577;DHT22;16509;53.862;10.672;2023-07-31T14:43:03;16.10;99.90
29577;DHT22;16509;53.862;10.672;2023-07-31T14:45:28;16.10;99.90
29577;DHT22;16509;53.862;10.672;2023-07-31T14:47:54;16.10;99.90
29577;DHT22;16509;53.862;10.672;2023-07-31T14:50:20;16.10;99.90
29577;DHT22;16509;53.862;10.672;2023-07-31T14:52:47;16.50;99.90
29577;DHT22;16509;53.862;10.672;2023-07-31T14:55:13;16.00;99.90
29577;DHT22;16509;53.862;10.672;2023-07-31T14:57:38;16.00;99.90
29577;DHT22;16509;53.862;10.672;2023-07-31T15:00:04;16.70;99.90
29577;DHT22;16509;53.862;10.672;2023-07-31T15:02:34;15.90;99.90
29577;DHT22;16509;53.862;10.672;2023-07-31T15:05:00;15.80;99.90
29577;DHT22;16509;53.862;10.672;2023-07-31T15:07:26;17.30;99.90
29577;DHT22;16509;53.862;10.672;2023-07-31T15:09:51;16.70;99.90
29577;DHT22;16509;53.862;10.672;2023-07-31T15:12:17;15.70;99.90
29577;DHT22;16509;53.862;10.672;2023-07-31T15:14:42;16.60;99.90
29577;DHT22;16509;53.862;10.672;2023-07-31T15:17:08;15.70;99.90
29577;DHT22;16509;53.862;10.672;2023-07-31T15:19:33;16.70;99.90
29577;DHT22;16509;53.862;10.672;2023-07-31T15:22:03;15.50;99.90
29577;DHT22;16509;53.862;10.672;2023-07-31T15:24:29;15.50;99.90
29577;DHT22;16509;53.862;10.672;2023-07-31T15:26:54;17.20;99.90